Aérodrome :
LOGIN :

S'inscrire | Disclaimer

   EN    FR    IT 

 










Légende :    VFR   VFR Marginal   IFR   IFR Intensif   IFR Très Intensif
Visi : 
Plafond : 
>= 8 km
>= 3000ft
5 à 8 km
1000 à 3000 ft
1500m à 5 km
500 à 1000 ft
800 à 1500m
200 à 500 ft
< 800m
< 200 ft
Symboles :   Orages  Brouillard  Fortes neiges  Fortes précipitations  Vent > 20 kt
SIGMETs :   Divers  Orages  Givrage  Turbulence  Onde Orograph.  Cendres Volcan.







- Altitude de l'aérodrome : 390 ft
- Code IATA : NQY
- Voir les cartes d'approche


EGHQ - Newquay

DERNIER METAR :
  • 221520Z 18008KT 2500 RA BR BKN003 15/14 Q1008

METARs EXPIRÉS :
  • 221350Z 12018KT 3500 RA BR BKN008 13/12 Q1009
  • 221320Z 13019KT 6000 -RA BKN008 12/12 Q1009
  • 221250Z 12023KT 6000 -RA BKN006 12/11 Q1010

TAF TAF EGHQ
Valide du 22 à 15h jusqu'au 23 à 00h UTC


221403Z 2215/2224 11017KT 4000 RA BR BKN008
BECMG 2215/2218 02007KT 6000 -RA SCT008 BKN030
PROB40
TEMPO 2218/2221 4000 -DZ BR BKN004
Pas de NOTAMs connus pour ce terrain.
1 SIGMET publié pour la FIR London (EGTT) :
 
Givrage fort
EGTT SIGMET 06 VALID 221400/221800 EGRR
EGTT LONDON FIR SEV ICE FCST WI N5100 E00128 - N5040 E00128 - N5011 E00014 - N5155 W00407 - N5245 W00251 - N5102 E00139 - N5100 E00128 FL060/150 MOV E 25KT NC=



MET'MAP, la Météo Aéronautique d'un coup d'oeil ! - Copyright ORBIFLY Décembre 2007 - Disclaimer

ORBIFLY MET'MAP TEAM :

Programmation & Développement : Alexandra Zaïnal
Conception & Développement : Baudouin d'Aumeries
Co-Programmation & Développement : Marc-Olivier Méhu
Soutien technique & logistique : Manuel Goepfert

Contact : metmap@orbifly.com




SOURCES & CREDITS :

   NOAA